Time;durP1;ratioP1;P1;durP2;ratioP2;P2;SDS_P1;SDS_P2;PMS_P1;PMS_P2;Temp;Humidity;BMP_temperature;BMP_pressure;BME280_temperature;BME280_humidity;BME280_pressure;Samples;Min_cycle;Max_cycle;Signal;HPM_P1;HPM_P2
2022/04/21 00:00:30;;;;;;;4.47;2.63;;;;;;;;;;5002209;28;20644;-58
2022/04/21 00:02:56;;;;;;;3.03;2.47;;;;;;;;;;5007533;28;20268;-57
2022/04/21 00:05:22;;;;;;;3.50;2.50;;;;;;;;;;4999738;28;20224;-56
2022/04/21 00:07:48;;;;;;;3.70;2.50;;;;;;;;;;4994599;28;20292;-58
2022/04/21 00:10:14;;;;;;;2.50;2.30;;;;;;;;;;5001777;28;20194;-57
2022/04/21 00:12:40;;;;;;;2.93;2.63;;;;;;;;;;4992916;28;20193;-56
2022/04/21 00:15:07;;;;;;;5.70;2.80;;;;;;;;;;5000179;28;20659;-56
2022/04/21 00:17:33;;;;;;;4.03;2.10;;;;;;;;;;5003929;28;20197;-57
2022/04/21 00:19:59;;;;;;;5.30;2.43;;;;;;;;;;5002429;28;20193;-57
2022/04/21 00:25:10;;;;;;;3.20;2.43;;;;;;;;;;5001721;28;20323;-57
2022/04/21 00:27:39;;;;;;;3.30;2.47;;;;;;;;;;4999045;28;20184;-57
2022/04/21 00:30:06;;;;;;;3.17;2.73;;;;;;;;;;4999962;28;20228;-57
2022/04/21 00:32:33;;;;;;;6.07;2.43;;;;;;;;;;4997803;28;20254;-57
2022/04/21 00:34:59;;;;;;;2.53;2.33;;;;;;;;;;4990045;28;20194;-57
2022/04/21 00:37:24;;;;;;;2.60;2.40;;;;;;;;;;4997878;28;20240;-57
2022/04/21 00:39:50;;;;;;;2.73;2.23;;;;;;;;;;4999811;28;20185;-57
2022/04/21 00:42:16;;;;;;;3.60;2.63;;;;;;;;;;4997253;28;20669;-57
2022/04/21 00:44:42;;;;;;;2.60;2.40;;;;;;;;;;5002615;28;20189;-57
2022/04/21 00:47:08;;;;;;;4.50;2.43;;;;;;;;;;5001264;28;20305;-57
2022/04/21 00:49:35;;;;;;;3.00;2.70;;;;;;;;;;5002353;28;20640;-57
2022/04/21 00:52:00;;;;;;;3.50;2.63;;;;;;;;;;5003603;28;20553;-57
2022/04/21 00:54:28;;;;;;;3.03;2.40;;;;;;;;;;5001618;28;21893;-57
2022/04/21 00:56:54;;;;;;;2.60;2.40;;;;;;;;;;5003054;28;20271;-57
2022/04/21 00:59:20;;;;;;;3.30;2.53;;;;;;;;;;4996580;28;20221;-58
2022/04/21 01:04:31;;;;;;;2.70;2.50;;;;;;;;;;4994682;28;20264;-57
2022/04/21 01:06:57;;;;;;;4.80;2.63;;;;;;;;;;4997758;28;20670;-57
2022/04/21 01:09:23;;;;;;;2.90;2.40;;;;;;;;;;5001779;28;20671;-57
2022/04/21 01:11:49;;;;;;;3.00;2.53;;;;;;;;;;4992880;28;20334;-57
2022/04/21 01:14:15;;;;;;;2.80;2.60;;;;;;;;;;5010715;28;20197;-57
2022/04/21 01:16:41;;;;;;;2.80;2.53;;;;;;;;;;5005894;28;20270;-57
2022/04/21 01:19:07;;;;;;;2.50;2.30;;;;;;;;;;5008155;28;20204;-57
2022/04/21 01:21:33;;;;;;;3.50;2.50;;;;;;;;;;5006034;28;20208;-57
2022/04/21 01:23:59;;;;;;;2.97;2.30;;;;;;;;;;5002957;28;20268;-57
2022/04/21 01:26:28;;;;;;;4.57;2.60;;;;;;;;;;5007379;28;21879;-57
2022/04/21 01:28:55;;;;;;;3.43;2.57;;;;;;;;;;5012537;28;20201;-57
2022/04/21 01:31:22;;;;;;;3.73;2.47;;;;;;;;;;5008119;28;20251;-57
2022/04/21 01:33:48;;;;;;;3.27;2.40;;;;;;;;;;5003398;28;20197;-58
2022/04/21 01:36:14;;;;;;;4.37;2.70;;;;;;;;;;5003699;28;20638;-57
2022/04/21 01:41:24;;;;;;;3.00;2.70;;;;;;;;;;5000055;28;20254;-57
2022/04/21 01:43:50;;;;;;;5.37;2.70;;;;;;;;;;4998671;28;20198;-57
2022/04/21 01:46:16;;;;;;;3.33;2.93;;;;;;;;;;5001557;28;20223;-58
2022/04/21 01:48:42;;;;;;;2.70;2.50;;;;;;;;;;5000385;28;20291;-57
2022/04/21 01:51:08;;;;;;;3.33;2.80;;;;;;;;;;4995934;28;20220;-56
2022/04/21 01:53:34;;;;;;;3.03;2.77;;;;;;;;;;4996085;28;20200;-56
2022/04/21 01:56:00;;;;;;;2.90;2.70;;;;;;;;;;5005634;28;20214;-57
2022/04/21 01:58:26;;;;;;;3.27;2.97;;;;;;;;;;4999064;28;20198;-58
2022/04/21 02:00:52;;;;;;;4.67;2.87;;;;;;;;;;4997151;28;20193;-57
2022/04/21 02:03:18;;;;;;;4.93;2.50;;;;;;;;;;5000550;28;20404;-57
2022/04/21 02:05:44;;;;;;;5.43;3.07;;;;;;;;;;5003815;28;20194;-57
2022/04/21 02:08:10;;;;;;;2.97;2.60;;;;;;;;;;5003034;28;20240;-57
2022/04/21 02:10:36;;;;;;;2.60;2.37;;;;;;;;;;5001417;28;20210;-57
2022/04/21 02:13:02;;;;;;;3.67;2.90;;;;;;;;;;5002638;28;20201;-57
2022/04/21 02:15:28;;;;;;;4.53;2.43;;;;;;;;;;5008043;28;20299;-57
2022/04/21 02:17:54;;;;;;;2.83;2.53;;;;;;;;;;5008042;28;20208;-58
2022/04/21 02:20:20;;;;;;;3.70;2.67;;;;;;;;;;5006570;28;20668;-57
2022/04/21 02:22:46;;;;;;;4.50;2.83;;;;;;;;;;5000249;28;20192;-57
2022/04/21 02:25:13;;;;;;;2.87;2.67;;;;;;;;;;5004464;28;21498;-57
2022/04/21 02:27:39;;;;;;;3.97;2.50;;;;;;;;;;4994856;28;20197;-57
2022/04/21 02:30:06;;;;;;;3.10;2.33;;;;;;;;;;4994358;28;20323;-57
2022/04/21 02:32:32;;;;;;;2.80;2.60;;;;;;;;;;4996219;28;20177;-58
2022/04/21 02:34:58;;;;;;;4.30;2.60;;;;;;;;;;5007364;28;20268;-57
2022/04/21 02:37:24;;;;;;;2.97;2.60;;;;;;;;;;5001441;28;20224;-57
2022/04/21 02:39:50;;;;;;;4.07;2.60;;;;;;;;;;5006570;28;20255;-57
2022/04/21 02:42:16;;;;;;;2.87;2.57;;;;;;;;;;5001777;28;20562;-57
2022/04/21 02:44:42;;;;;;;2.90;2.63;;;;;;;;;;5006331;28;20197;-57
2022/04/21 02:47:09;;;;;;;3.00;2.70;;;;;;;;;;4998657;28;20644;-57
2022/04/21 02:49:35;;;;;;;2.60;2.40;;;;;;;;;;4999104;28;20311;-57
2022/04/21 02:52:01;;;;;;;3.17;2.60;;;;;;;;;;4998983;28;20193;-57
2022/04/21 02:57:21;;;;;;;3.23;2.93;;;;;;;;;;5003929;28;20213;-57
2022/04/21 02:59:48;;;;;;;3.77;2.70;;;;;;;;;;4995919;28;20230;-58
2022/04/21 03:02:13;;;;;;;2.83;2.63;;;;;;;;;;5000289;28;20292;-57
2022/04/21 03:04:39;;;;;;;4.97;2.77;;;;;;;;;;4993853;28;20587;-56
2022/04/21 03:07:05;;;;;;;3.00;2.70;;;;;;;;;;4995681;28;20747;-57
2022/04/21 03:09:32;;;;;;;3.57;3.10;;;;;;;;;;5000331;28;20722;-57
2022/04/21 03:12:04;;;;;;;2.97;2.67;;;;;;;;;;4995657;28;20204;-58
2022/04/21 03:14:30;;;;;;;3.20;2.87;;;;;;;;;;5006003;28;20197;-57
2022/04/21 03:16:57;;;;;;;3.97;2.87;;;;;;;;;;4996985;28;20213;-58
2022/04/21 03:19:23;;;;;;;2.80;2.60;;;;;;;;;;5000086;28;21255;-57
2022/04/21 03:24:34;;;;;;;3.07;2.60;;;;;;;;;;5010862;28;20349;-58
2022/04/21 03:27:01;;;;;;;2.83;2.50;;;;;;;;;;5004934;28;20204;-57
2022/04/21 03:29:27;;;;;;;3.40;2.60;;;;;;;;;;4997003;28;20200;-57
2022/04/21 03:31:53;;;;;;;3.43;2.97;;;;;;;;;;4996101;28;20263;-57
2022/04/21 03:34:20;;;;;;;2.73;2.53;;;;;;;;;;5003533;28;20181;-57
2022/04/21 03:36:50;;;;;;;4.23;3.10;;;;;;;;;;5006179;28;20207;-57
2022/04/21 03:39:17;;;;;;;3.50;2.90;;;;;;;;;;4991390;28;20186;-57
2022/04/21 03:41:43;;;;;;;3.57;2.90;;;;;;;;;;5008262;28;20189;-57
2022/04/21 03:44:12;;;;;;;3.73;2.70;;;;;;;;;;4994298;28;20274;-58
2022/04/21 03:46:38;;;;;;;3.93;2.83;;;;;;;;;;4995523;28;20196;-58
2022/04/21 03:49:07;;;;;;;3.20;2.90;;;;;;;;;;4993926;28;20195;-57
2022/04/21 03:51:33;;;;;;;4.27;3.03;;;;;;;;;;5004735;28;20220;-57
2022/04/21 03:53:59;;;;;;;5.77;3.30;;;;;;;;;;5010265;28;20189;-57
2022/04/21 03:56:27;;;;;;;3.37;3.07;;;;;;;;;;4992761;28;20655;-57
2022/04/21 03:58:53;;;;;;;4.33;3.00;;;;;;;;;;4981160;28;22145;-57
2022/04/21 04:01:19;;;;;;;4.00;3.20;;;;;;;;;;4988023;28;20197;-57
2022/04/21 04:03:45;;;;;;;6.43;2.80;;;;;;;;;;4991496;28;20272;-57
2022/04/21 04:11:41;;;;;;;3.30;3.00;;;;;;;;;;5004860;28;20199;-57
2022/04/21 04:14:07;;;;;;;4.90;3.10;;;;;;;;;;5000713;28;20193;-56
2022/04/21 04:16:37;;;;;;;4.23;2.90;;;;;;;;;;5000920;28;20226;-57
2022/04/21 04:19:05;;;;;;;4.63;3.00;;;;;;;;;;4993502;28;20219;-56
2022/04/21 04:21:31;;;;;;;4.00;3.47;;;;;;;;;;5004733;28;20280;-57
2022/04/21 04:23:57;;;;;;;3.23;2.80;;;;;;;;;;5000642;28;20296;-57
2022/04/21 04:26:23;;;;;;;4.47;3.17;;;;;;;;;;5000106;28;20248;-57
2022/04/21 04:28:49;;;;;;;3.63;3.00;;;;;;;;;;4994344;28;20610;-58
2022/04/21 04:31:15;;;;;;;3.43;3.10;;;;;;;;;;5003718;28;20327;-57
2022/04/21 04:33:41;;;;;;;3.87;3.10;;;;;;;;;;5003594;28;20199;-57
2022/04/21 04:36:10;;;;;;;3.13;2.83;;;;;;;;;;4997565;28;20216;-57
2022/04/21 04:38:36;;;;;;;3.17;2.93;;;;;;;;;;5003663;28;20200;-57
2022/04/21 04:42:16;;;;;;;3.23;2.93;;;;;;;;;;4999190;28;20189;-56
2022/04/21 04:43:48;;;;;;;3.43;3.10;;;;;;;;;;5000102;28;22335;-57
2022/04/21 04:48:59;;;;;;;4.27;3.10;;;;;;;;;;4991824;28;20798;-57
2022/04/21 04:51:27;;;;;;;3.97;3.17;;;;;;;;;;4991261;28;20804;-57
2022/04/21 04:53:53;;;;;;;4.13;3.40;;;;;;;;;;4994495;28;20197;-57
2022/04/21 04:56:20;;;;;;;4.63;3.50;;;;;;;;;;5003389;28;20223;-57
2022/04/21 04:58:46;;;;;;;5.03;3.50;;;;;;;;;;5004842;28;20284;-57
2022/04/21 05:01:12;;;;;;;5.30;3.00;;;;;;;;;;4998631;28;20286;-57
2022/04/21 05:03:39;;;;;;;6.17;3.27;;;;;;;;;;4998220;28;20189;-57
2022/04/21 05:06:05;;;;;;;4.90;3.33;;;;;;;;;;4988480;28;20417;-57
2022/04/21 05:08:31;;;;;;;4.57;3.10;;;;;;;;;;5002735;28;20318;-56
2022/04/21 05:10:57;;;;;;;4.03;3.20;;;;;;;;;;5000764;28;20193;-57
2022/04/21 05:13:23;;;;;;;3.40;3.07;;;;;;;;;;4999987;28;20192;-57
2022/04/21 05:15:49;;;;;;;3.20;2.90;;;;;;;;;;4993370;28;20314;-57
2022/04/21 05:18:16;;;;;;;3.83;3.50;;;;;;;;;;4993359;28;20232;-58
2022/04/21 05:20:43;;;;;;;4.17;2.87;;;;;;;;;;4992846;28;20193;-57
2022/04/21 05:23:09;;;;;;;3.27;2.97;;;;;;;;;;4997475;28;20196;-57
2022/04/21 05:25:36;;;;;;;4.00;3.17;;;;;;;;;;4996728;28;20618;-57
2022/04/21 05:28:02;;;;;;;4.97;3.80;;;;;;;;;;5000432;28;20251;-56
2022/04/21 05:33:15;;;;;;;27.50;4.37;;;;;;;;;;4998824;28;20327;-56
2022/04/21 05:35:42;;;;;;;4.20;3.80;;;;;;;;;;4996571;28;20212;-57
2022/04/21 05:38:08;;;;;;;9.90;4.27;;;;;;;;;;4987292;28;20185;-57
2022/04/21 05:40:34;;;;;;;5.10;3.80;;;;;;;;;;5006114;28;20204;-57
2022/04/21 05:43:01;;;;;;;7.80;4.37;;;;;;;;;;4999103;28;20202;-57
2022/04/21 05:45:27;;;;;;;5.80;4.23;;;;;;;;;;5004151;28;20595;-57
2022/04/21 05:47:53;;;;;;;8.53;4.77;;;;;;;;;;5003332;28;20189;-57
2022/04/21 05:50:19;;;;;;;12.17;4.23;;;;;;;;;;4998335;28;20193;-57
2022/04/21 05:52:45;;;;;;;5.60;4.20;;;;;;;;;;4998786;28;20722;-57
2022/04/21 05:55:11;;;;;;;4.67;4.17;;;;;;;;;;4998721;28;20532;-57
2022/04/21 05:57:40;;;;;;;5.70;4.17;;;;;;;;;;4990055;28;22274;-57
2022/04/21 06:00:07;;;;;;;5.27;4.00;;;;;;;;;;4988288;28;20341;-57
2022/04/21 06:02:35;;;;;;;4.87;3.70;;;;;;;;;;4997302;28;20193;-57
2022/04/21 06:05:00;;;;;;;5.47;4.03;;;;;;;;;;5006679;28;20200;-58
2022/04/21 06:07:26;;;;;;;6.30;4.20;;;;;;;;;;4995116;28;20287;-56
2022/04/21 06:09:52;;;;;;;7.63;3.90;;;;;;;;;;5009191;28;20228;-57
2022/04/21 06:12:18;;;;;;;5.90;3.87;;;;;;;;;;5001339;28;20279;-57
2022/04/21 06:14:45;;;;;;;7.43;4.03;;;;;;;;;;5002617;28;20201;-57
2022/04/21 06:17:11;;;;;;;7.70;3.73;;;;;;;;;;5008952;28;20209;-57
2022/04/21 06:19:37;;;;;;;5.67;4.20;;;;;;;;;;4995577;28;20186;-58
2022/04/21 06:22:03;;;;;;;5.17;3.90;;;;;;;;;;5009800;28;20574;-57
2022/04/21 06:24:29;;;;;;;10.23;3.80;;;;;;;;;;5005451;28;20203;-57
2022/04/21 06:26:55;;;;;;;6.20;3.70;;;;;;;;;;5009976;28;20220;-57
2022/04/21 06:29:21;;;;;;;4.20;3.50;;;;;;;;;;5005282;28;20225;-57
2022/04/21 06:31:47;;;;;;;4.73;3.33;;;;;;;;;;4997747;28;20268;-57
2022/04/21 06:34:13;;;;;;;6.47;3.70;;;;;;;;;;4999099;28;20832;-56
2022/04/21 06:36:39;;;;;;;4.40;3.63;;;;;;;;;;5002181;28;20265;-57
2022/04/21 06:39:05;;;;;;;5.73;3.90;;;;;;;;;;4995630;28;20197;-57
2022/04/21 06:41:31;;;;;;;7.80;3.70;;;;;;;;;;4985410;28;20186;-56
2022/04/21 06:49:27;;;;;;;6.43;3.50;;;;;;;;;;4994606;28;20196;-57
2022/04/21 06:51:53;;;;;;;5.97;3.30;;;;;;;;;;4991639;28;20256;-56
2022/04/21 06:54:19;;;;;;;4.03;3.27;;;;;;;;;;4984123;28;20201;-57
2022/04/21 06:56:48;;;;;;;5.77;3.63;;;;;;;;;;4995136;28;20296;-57
2022/04/21 06:59:14;;;;;;;4.90;3.73;;;;;;;;;;5004515;28;20419;-57
2022/04/21 07:01:41;;;;;;;5.30;3.63;;;;;;;;;;5003604;28;20658;-56
2022/04/21 07:04:07;;;;;;;4.07;3.67;;;;;;;;;;5002077;28;20677;-57
2022/04/21 07:06:33;;;;;;;4.50;3.43;;;;;;;;;;4993107;28;20216;-56
2022/04/21 07:08:59;;;;;;;7.60;3.20;;;;;;;;;;4985709;28;20745;-56
2022/04/21 07:11:25;;;;;;;4.70;3.40;;;;;;;;;;5003680;28;20197;-57
2022/04/21 07:13:52;;;;;;;4.83;3.43;;;;;;;;;;5003850;28;20593;-57
2022/04/21 07:16:18;;;;;;;4.17;3.07;;;;;;;;;;5002326;28;20358;-56
2022/04/21 07:18:44;;;;;;;6.83;3.23;;;;;;;;;;4999495;28;20194;-57
2022/04/21 07:21:10;;;;;;;5.23;3.10;;;;;;;;;;4992629;28;20197;-57
2022/04/21 07:23:36;;;;;;;10.13;3.90;;;;;;;;;;5002542;28;20204;-60
2022/04/21 07:26:02;;;;;;;5.53;3.50;;;;;;;;;;4991393;28;20223;-57
2022/04/21 07:28:28;;;;;;;6.83;3.90;;;;;;;;;;4998989;28;20197;-57
2022/04/21 07:30:54;;;;;;;4.70;3.17;;;;;;;;;;4995742;28;20241;-57
2022/04/21 07:33:20;;;;;;;5.57;2.97;;;;;;;;;;4999066;28;20193;-57
2022/04/21 07:35:46;;;;;;;3.83;3.20;;;;;;;;;;5001190;28;20632;-58
2022/04/21 07:38:12;;;;;;;4.87;3.20;;;;;;;;;;4984821;28;20189;-57
2022/04/21 07:40:38;;;;;;;7.03;3.10;;;;;;;;;;4989680;28;20627;-58
2022/04/21 07:43:08;;;;;;;5.57;3.10;;;;;;;;;;4999013;28;20201;-58
2022/04/21 07:45:34;;;;;;;6.37;3.57;;;;;;;;;;4997195;28;20189;-57
2022/04/21 07:48:00;;;;;;;5.97;3.20;;;;;;;;;;5000748;28;20196;-58
2022/04/21 07:50:26;;;;;;;5.03;3.20;;;;;;;;;;4983867;28;20197;-57
2022/04/21 07:55:37;;;;;;;3.90;2.83;;;;;;;;;;4985897;28;20725;-57
2022/04/21 07:58:03;;;;;;;6.07;2.70;;;;;;;;;;4985767;28;20298;-57
2022/04/21 08:00:29;;;;;;;4.17;3.07;;;;;;;;;;4990226;28;20508;-57
2022/04/21 08:02:55;;;;;;;3.93;3.00;;;;;;;;;;4980848;28;20807;-58
2022/04/21 08:05:21;;;;;;;4.63;2.57;;;;;;;;;;4967570;28;20197;-58
2022/04/21 08:07:47;;;;;;;4.17;2.30;;;;;;;;;;4983618;28;20766;-57
2022/04/21 08:10:14;;;;;;;3.50;2.37;;;;;;;;;;4989697;28;21130;-57
2022/04/21 08:12:41;;;;;;;4.37;2.60;;;;;;;;;;4988186;28;20196;-59
2022/04/21 08:15:10;;;;;;;3.27;2.50;;;;;;;;;;4986999;28;20189;-57
2022/04/21 08:17:36;;;;;;;3.03;2.60;;;;;;;;;;4993846;28;20668;-58
2022/04/21 08:20:06;;;;;;;3.57;2.47;;;;;;;;;;4985873;28;20225;-58
2022/04/21 08:22:32;;;;;;;3.80;3.23;;;;;;;;;;4987224;28;20730;-58
2022/04/21 08:33:13;;;;;;;4.97;2.70;;;;;;;;;;4993643;28;20196;-58
2022/04/21 08:35:39;;;;;;;6.10;2.97;;;;;;;;;;4983743;28;20734;-57
2022/04/21 08:38:07;;;;;;;5.70;2.60;;;;;;;;;;4989406;28;20192;-58
2022/04/21 08:40:35;;;;;;;5.33;2.50;;;;;;;;;;4990846;28;20285;-58
2022/04/21 08:43:01;;;;;;;5.63;2.50;;;;;;;;;;4984766;28;20287;-57
2022/04/21 08:45:27;;;;;;;4.35;2.47;;;;;;;;;;4984044;28;20293;-58
2022/04/21 08:47:57;;;;;;;4.28;2.63;;;;;;;;;;4990299;28;20928;-57
2022/04/21 08:50:24;;;;;;;5.70;2.90;;;;;;;;;;4985064;28;20283;-57
2022/04/21 08:52:49;;;;;;;4.22;3.10;;;;;;;;;;4990031;28;20197;-57
2022/04/21 08:55:15;;;;;;;4.80;2.58;;;;;;;;;;4985677;28;20782;-58
2022/04/21 08:57:41;;;;;;;3.50;2.85;;;;;;;;;;4985338;28;20217;-57
2022/04/21 09:00:08;;;;;;;4.72;2.50;;;;;;;;;;4999266;28;21123;-58
2022/04/21 09:02:34;;;;;;;3.42;2.72;;;;;;;;;;5005572;28;20266;-57
2022/04/21 09:05:00;;;;;;;5.75;2.83;;;;;;;;;;5001147;28;20185;-57
2022/04/21 09:07:26;;;;;;;4.07;2.67;;;;;;;;;;4989754;28;20221;-58
2022/04/21 09:10:02;;;;;;;2.70;2.42;;;;;;;;;;4978907;28;20956;-58
2022/04/21 09:12:28;;;;;;;2.95;2.50;;;;;;;;;;4983020;28;20216;-58
2022/04/21 09:14:54;;;;;;;3.72;2.45;;;;;;;;;;4993601;28;20284;-58
2022/04/21 09:17:20;;;;;;;8.10;2.80;;;;;;;;;;4993114;28;20717;-58
2022/04/21 09:19:59;;;;;;;21.23;3.63;;;;;;;;;;4982117;28;20192;-58
2022/04/21 09:22:25;;;;;;;11.93;2.60;;;;;;;;;;4989180;28;20185;-57
2022/04/21 09:24:53;;;;;;;7.32;2.05;;;;;;;;;;4987334;28;20265;-58
2022/04/21 09:27:22;;;;;;;7.38;2.25;;;;;;;;;;4983388;28;22178;-58
2022/04/21 09:29:49;;;;;;;7.85;2.13;;;;;;;;;;4980323;28;20951;-58
2022/04/21 09:32:16;;;;;;;7.38;2.00;;;;;;;;;;4992273;28;20193;-58
2022/04/21 09:34:45;;;;;;;8.82;1.95;;;;;;;;;;4996700;28;20763;-58
2022/04/21 09:37:13;;;;;;;9.20;2.55;;;;;;;;;;4983091;28;20653;-57
2022/04/21 09:39:39;;;;;;;2.97;1.92;;;;;;;;;;4982956;28;21904;-58
2022/04/21 09:42:06;;;;;;;4.10;2.38;;;;;;;;;;4998193;28;20294;-58
2022/04/21 09:47:18;;;;;;;4.97;1.80;;;;;;;;;;4998918;28;20184;-58
2022/04/21 09:49:44;;;;;;;3.33;1.98;;;;;;;;;;4977543;28;20197;-57
2022/04/21 09:52:10;;;;;;;4.55;2.15;;;;;;;;;;4992285;28;20189;-58
2022/04/21 09:54:36;;;;;;;3.20;1.90;;;;;;;;;;4983328;28;20769;-57
2022/04/21 09:57:03;;;;;;;7.05;2.35;;;;;;;;;;4979384;28;20216;-58
2022/04/21 09:59:29;;;;;;;5.05;2.15;;;;;;;;;;4976472;28;20293;-59
2022/04/21 10:01:55;;;;;;;4.43;1.70;;;;;;;;;;4970104;28;20277;-58
2022/04/21 10:04:21;;;;;;;3.60;1.95;;;;;;;;;;4981652;28;20227;-60
2022/04/21 10:06:47;;;;;;;4.00;1.73;;;;;;;;;;4981687;28;20735;-58
2022/04/21 10:09:15;;;;;;;3.28;1.85;;;;;;;;;;4985431;28;20284;-58
2022/04/21 10:11:44;;;;;;;2.92;1.60;;;;;;;;;;5000539;28;20194;-58
2022/04/21 10:14:15;;;;;;;2.50;1.80;;;;;;;;;;5001942;28;20539;-57
2022/04/21 10:16:42;;;;;;;2.33;1.80;;;;;;;;;;5000433;28;20677;-58
2022/04/21 10:19:08;;;;;;;6.75;2.03;;;;;;;;;;5002624;28;20266;-57
2022/04/21 10:21:34;;;;;;;2.08;1.80;;;;;;;;;;4995113;28;20190;-58
2022/04/21 10:24:00;;;;;;;2.50;2.00;;;;;;;;;;5006207;28;20288;-58
2022/04/21 10:26:40;;;;;;;4.18;2.35;;;;;;;;;;5004996;28;20272;-57
2022/04/21 10:29:12;;;;;;;3.28;2.20;;;;;;;;;;4999953;28;20604;-58
2022/04/21 10:31:58;;;;;;;3.25;2.20;;;;;;;;;;4997971;28;20228;-58
2022/04/21 10:34:35;;;;;;;4.03;2.20;;;;;;;;;;4989611;28;20193;-58
2022/04/21 10:37:05;;;;;;;4.57;2.30;;;;;;;;;;4984183;28;20220;-58
2022/04/21 10:39:31;;;;;;;2.90;2.22;;;;;;;;;;5000793;28;20778;-58
2022/04/21 10:42:06;;;;;;;6.97;2.13;;;;;;;;;;5001516;28;20800;-58
2022/04/21 10:44:32;;;;;;;5.17;2.27;;;;;;;;;;4997986;28;20551;-57
2022/04/21 10:47:16;;;;;;;3.27;2.47;;;;;;;;;;5002783;28;21087;-57
2022/04/21 10:49:55;;;;;;;6.87;2.50;;;;;;;;;;5003569;28;20189;-57
2022/04/21 10:57:51;;;;;;;5.57;2.83;;;;;;;;;;4988034;28;20305;-58
2022/04/21 11:00:30;;;;;;;5.10;2.30;;;;;;;;;;4988794;28;20186;-59
2022/04/21 11:03:02;;;;;;;5.83;2.03;;;;;;;;;;4994198;28;20798;-58
2022/04/21 11:05:37;;;;;;;4.13;2.00;;;;;;;;;;4998303;28;20833;-58
2022/04/21 11:08:12;;;;;;;7.25;2.58;;;;;;;;;;5007021;28;20245;-57
2022/04/21 11:10:38;;;;;;;2.20;2.00;;;;;;;;;;4995315;28;20203;-58
2022/04/21 11:13:10;;;;;;;2.88;1.85;;;;;;;;;;5002938;28;20193;-58
2022/04/21 11:15:38;;;;;;;3.03;2.30;;;;;;;;;;4999426;28;20193;-58
2022/04/21 11:18:08;;;;;;;4.30;1.90;;;;;;;;;;5008548;28;20835;-58
2022/04/21 11:20:34;;;;;;;2.20;2.00;;;;;;;;;;5005062;28;20231;-58
2022/04/21 11:23:00;;;;;;;4.30;2.03;;;;;;;;;;5000058;28;20185;-57
2022/04/21 11:25:26;;;;;;;2.88;1.92;;;;;;;;;;5008504;28;20707;-58
2022/04/21 11:27:52;;;;;;;2.05;1.85;;;;;;;;;;5008762;28;20223;-58
2022/04/21 11:30:18;;;;;;;2.38;1.92;;;;;;;;;;4999914;28;20217;-58
2022/04/21 11:32:53;;;;;;;2.72;2.00;;;;;;;;;;5005863;28;20662;-57
2022/04/21 11:35:22;;;;;;;2.28;2.08;;;;;;;;;;5003072;28;20212;-58
2022/04/21 11:37:58;;;;;;;4.15;2.08;;;;;;;;;;4997684;28;20213;-59
2022/04/21 11:40:34;;;;;;;3.55;2.03;;;;;;;;;;5002822;28;20239;-59
2022/04/21 11:43:02;;;;;;;2.95;1.80;;;;;;;;;;5002851;28;20566;-59
2022/04/21 11:45:28;;;;;;;3.85;2.30;;;;;;;;;;4999992;28;20570;-58
2022/04/21 11:47:55;;;;;;;3.60;2.42;;;;;;;;;;5002692;28;20193;-59
2022/04/21 11:50:24;;;;;;;4.28;2.20;;;;;;;;;;5001749;28;20646;-58
2022/04/21 11:52:52;;;;;;;8.18;2.30;;;;;;;;;;5000181;28;20196;-58
2022/04/21 11:55:19;;;;;;;4.03;1.92;;;;;;;;;;5003397;28;20558;-57
2022/04/21 11:57:45;;;;;;;3.75;2.15;;;;;;;;;;5002657;28;20438;-58
2022/04/21 12:00:12;;;;;;;2.35;1.90;;;;;;;;;;4997731;28;20814;-58
2022/04/21 12:08:07;;;;;;;8.05;2.47;;;;;;;;;;4995979;28;20228;-58
2022/04/21 12:10:34;;;;;;;3.63;2.05;;;;;;;;;;4995336;28;20197;-58
2022/04/21 12:13:01;;;;;;;9.63;2.55;;;;;;;;;;5000234;28;20276;-59
2022/04/21 12:15:28;;;;;;;4.07;2.10;;;;;;;;;;4992825;28;20632;-58
2022/04/21 12:17:58;;;;;;;7.22;2.00;;;;;;;;;;4985396;28;20635;-58
2022/04/21 12:20:24;;;;;;;9.95;2.35;;;;;;;;;;4991947;28;20181;-58
2022/04/21 12:22:50;;;;;;;2.83;2.03;;;;;;;;;;4986148;28;21160;-59
2022/04/21 12:25:16;;;;;;;16.30;2.90;;;;;;;;;;4989010;28;20196;-60
2022/04/21 12:27:42;;;;;;;4.78;2.90;;;;;;;;;;4972142;28;20193;-60
2022/04/21 12:30:11;;;;;;;6.03;2.38;;;;;;;;;;5000441;28;20229;-59
2022/04/21 12:32:40;;;;;;;254.77;74.70;;;;;;;;;;4980060;28;20197;-61
2022/04/21 12:35:07;;;;;;;11.70;5.70;;;;;;;;;;4988541;28;20192;-60
2022/04/21 12:37:34;;;;;;;20.00;8.73;;;;;;;;;;4979622;28;20307;-61
2022/04/21 12:40:00;;;;;;;7.65;3.90;;;;;;;;;;4980534;28;20194;-60
2022/04/21 12:42:29;;;;;;;17.15;6.60;;;;;;;;;;4980979;28;20213;-61
2022/04/21 12:44:55;;;;;;;47.97;16.38;;;;;;;;;;4982358;28;20308;-59
2022/04/21 12:47:21;;;;;;;6.63;3.92;;;;;;;;;;4985527;28;20395;-62
2022/04/21 12:49:51;;;;;;;9.73;3.65;;;;;;;;;;4990778;28;20209;-61
2022/04/21 12:52:41;;;;;;;7.68;4.10;;;;;;;;;;5000969;28;20197;-60
2022/04/21 12:55:10;;;;;;;9.43;4.40;;;;;;;;;;4993107;28;20209;-61
2022/04/21 12:57:36;;;;;;;7.07;3.20;;;;;;;;;;4984800;28;20216;-62
2022/04/21 13:00:04;;;;;;;5.10;2.75;;;;;;;;;;4996530;28;20326;-59
2022/04/21 13:02:30;;;;;;;5.10;3.03;;;;;;;;;;4992367;28;20603;-60
2022/04/21 13:04:57;;;;;;;3.22;2.55;;;;;;;;;;4992764;28;20224;-61
2022/04/21 13:07:23;;;;;;;6.18;2.80;;;;;;;;;;4984828;28;20744;-61
2022/04/21 13:09:50;;;;;;;7.72;2.72;;;;;;;;;;4991961;28;20194;-61
2022/04/21 13:12:16;;;;;;;5.82;2.55;;;;;;;;;;4992186;28;21141;-61
2022/04/21 13:14:42;;;;;;;3.75;2.88;;;;;;;;;;5000918;28;20849;-61
2022/04/21 13:17:08;;;;;;;2.85;2.55;;;;;;;;;;4995974;28;20224;-61
2022/04/21 13:19:34;;;;;;;3.33;2.47;;;;;;;;;;4996189;28;20227;-61
2022/04/21 13:22:00;;;;;;;6.63;2.53;;;;;;;;;;4991175;28;20761;-63
2022/04/21 13:24:26;;;;;;;5.22;3.05;;;;;;;;;;4982455;28;20243;-62
2022/04/21 13:26:53;;;;;;;4.90;3.05;;;;;;;;;;4996069;28;20231;-63
2022/04/21 13:29:20;;;;;;;3.55;2.80;;;;;;;;;;4993862;28;20221;-63
2022/04/21 13:34:31;;;;;;;3.17;2.88;;;;;;;;;;4997107;28;20247;-61
2022/04/21 13:36:57;;;;;;;4.38;2.65;;;;;;;;;;4988961;28;20262;-60
2022/04/21 13:39:23;;;;;;;6.45;3.17;;;;;;;;;;4997900;28;20192;-59
2022/04/21 13:41:49;;;;;;;5.27;3.03;;;;;;;;;;4995146;28;20228;-59
2022/04/21 13:44:15;;;;;;;7.37;3.57;;;;;;;;;;4990351;28;20197;-59
2022/04/21 13:46:41;;;;;;;4.73;2.97;;;;;;;;;;4991389;28;20219;-59
2022/04/21 13:49:07;;;;;;;4.97;3.50;;;;;;;;;;4991672;28;20201;-59
2022/04/21 13:51:33;;;;;;;5.80;3.60;;;;;;;;;;4989241;28;20252;-59
2022/04/21 13:53:59;;;;;;;6.20;3.47;;;;;;;;;;4993692;28;20708;-59
2022/04/21 13:56:29;;;;;;;5.97;3.73;;;;;;;;;;4998434;28;20217;-59
2022/04/21 13:58:54;;;;;;;4.27;3.30;;;;;;;;;;4998115;28;20650;-59
2022/04/21 14:01:21;;;;;;;11.03;3.67;;;;;;;;;;4993846;28;20246;-59
2022/04/21 14:03:47;;;;;;;5.23;3.60;;;;;;;;;;4987259;28;21328;-58
2022/04/21 14:06:13;;;;;;;6.20;3.47;;;;;;;;;;4999264;28;20194;-59
2022/04/21 14:08:39;;;;;;;6.83;3.77;;;;;;;;;;4998702;28;20246;-59
2022/04/21 14:11:06;;;;;;;4.43;3.60;;;;;;;;;;4984564;28;20734;-59
2022/04/21 14:13:32;;;;;;;4.47;3.23;;;;;;;;;;4989920;28;20217;-57
2022/04/21 14:15:59;;;;;;;5.77;3.37;;;;;;;;;;4992152;28;20244;-57
2022/04/21 14:18:25;;;;;;;4.70;3.10;;;;;;;;;;4988926;28;20434;-57
2022/04/21 14:20:55;;;;;;;4.70;3.63;;;;;;;;;;4995751;28;21007;-57
2022/04/21 14:23:22;;;;;;;8.63;3.30;;;;;;;;;;4970823;28;20203;-58
2022/04/21 14:25:48;;;;;;;5.67;3.57;;;;;;;;;;4987673;28;20182;-56
2022/04/21 14:28:14;;;;;;;3.67;3.30;;;;;;;;;;4988462;28;20539;-57
2022/04/21 14:30:40;;;;;;;4.47;3.58;;;;;;;;;;4978083;28;20231;-57
2022/04/21 14:33:06;;;;;;;5.55;3.28;;;;;;;;;;4993269;28;20205;-57
2022/04/21 14:35:32;;;;;;;6.78;3.47;;;;;;;;;;4994808;28;20194;-57
2022/04/21 14:46:12;;;;;;;4.05;3.65;;;;;;;;;;4983584;28;20235;-57
2022/04/21 14:48:38;;;;;;;7.85;4.03;;;;;;;;;;4969889;28;20185;-57
2022/04/21 14:51:04;;;;;;;7.65;4.03;;;;;;;;;;4991435;28;20192;-57
2022/04/21 14:53:30;;;;;;;9.73;4.10;;;;;;;;;;4985215;28;20192;-57
2022/04/21 14:55:56;;;;;;;4.25;3.88;;;;;;;;;;4985965;28;20232;-57
2022/04/21 14:58:22;;;;;;;6.35;4.38;;;;;;;;;;4986915;28;20209;-58
2022/04/21 15:00:48;;;;;;;4.75;4.07;;;;;;;;;;4985102;28;20186;-57
2022/04/21 15:03:14;;;;;;;7.03;4.60;;;;;;;;;;4984516;28;20188;-57
2022/04/21 15:05:41;;;;;;;7.65;4.90;;;;;;;;;;4991575;28;20196;-57
2022/04/21 15:08:08;;;;;;;8.30;4.75;;;;;;;;;;4981249;28;20319;-57
2022/04/21 15:10:34;;;;;;;12.73;5.13;;;;;;;;;;4998885;28;20705;-57
2022/04/21 15:13:00;;;;;;;8.43;4.90;;;;;;;;;;4988774;28;20189;-57
2022/04/21 15:15:26;;;;;;;5.80;4.53;;;;;;;;;;4986744;28;20268;-57
2022/04/21 15:17:52;;;;;;;5.22;4.72;;;;;;;;;;4979912;28;20260;-57
2022/04/21 15:20:18;;;;;;;9.05;4.88;;;;;;;;;;4998715;28;20655;-57
2022/04/21 15:22:44;;;;;;;5.32;4.28;;;;;;;;;;4990084;28;20646;-57
2022/04/21 15:25:10;;;;;;;7.30;5.35;;;;;;;;;;4992729;28;20215;-59
2022/04/21 15:27:36;;;;;;;7.45;4.28;;;;;;;;;;4997734;28;20708;-60
2022/04/21 15:30:02;;;;;;;8.88;3.83;;;;;;;;;;4993249;28;20252;-59
2022/04/21 15:32:29;;;;;;;6.77;3.33;;;;;;;;;;4986548;28;21268;-56
2022/04/21 15:34:55;;;;;;;7.13;3.53;;;;;;;;;;4988969;28;20501;-56
2022/04/21 15:37:21;;;;;;;7.35;3.10;;;;;;;;;;4989472;28;20572;-56
2022/04/21 15:39:48;;;;;;;5.03;2.97;;;;;;;;;;4996765;28;20189;-57
2022/04/21 15:42:14;;;;;;;6.82;3.47;;;;;;;;;;4989198;28;20198;-57
2022/04/21 15:44:40;;;;;;;6.17;3.13;;;;;;;;;;4998067;28;20209;-56
2022/04/21 15:47:06;;;;;;;5.18;3.13;;;;;;;;;;4980902;28;20824;-57